createdAt,value
2019-06-26T00:01:12.963Z,24.90
2019-06-26T00:03:42.038Z,24.70
2019-06-26T00:06:11.071Z,24.70
2019-06-26T00:08:40.535Z,24.60
2019-06-26T00:11:12.016Z,24.60
2019-06-26T00:13:41.000Z,24.60
2019-06-26T00:16:10.341Z,24.50
2019-06-26T00:18:39.724Z,24.40
2019-06-26T00:21:08.782Z,24.40
2019-06-26T00:23:37.741Z,24.40
2019-06-26T00:26:06.697Z,24.30
2019-06-26T00:28:35.676Z,24.30
2019-06-26T00:31:04.653Z,24.20
2019-06-26T00:33:33.686Z,24.20
2019-06-26T00:36:02.768Z,24.10
2019-06-26T00:38:31.790Z,24.00
2019-06-26T00:41:00.983Z,24.00
2019-06-26T00:43:41.938Z,24.00
2019-06-26T00:46:00.624Z,24.00
2019-06-26T00:48:29.911Z,24.00
2019-06-26T00:50:59.219Z,23.90
2019-06-26T00:53:30.377Z,23.90
2019-06-26T00:55:59.496Z,23.80
2019-06-26T00:58:28.478Z,23.80
2019-06-26T01:00:59.681Z,23.80
2019-06-26T01:03:28.821Z,23.80
2019-06-26T01:05:57.894Z,23.70
2019-06-26T01:08:27.128Z,23.70
2019-06-26T01:10:56.366Z,23.70
2019-06-26T01:13:25.496Z,23.70
2019-06-26T01:15:54.549Z,23.60
2019-06-26T01:18:24.099Z,23.60
2019-06-26T01:20:53.768Z,23.50
2019-06-26T01:23:22.740Z,23.40
2019-06-26T01:25:51.733Z,23.40
2019-06-26T01:28:20.701Z,23.50
2019-06-26T01:30:49.715Z,23.40
2019-06-26T01:33:19.198Z,23.40
2019-06-26T01:35:48.220Z,23.40
2019-06-26T01:38:17.225Z,23.40
2019-06-26T01:40:46.484Z,23.30
2019-06-26T01:43:15.566Z,23.30
2019-06-26T01:45:44.521Z,23.20
2019-06-26T01:48:13.495Z,23.20
2019-06-26T01:50:42.875Z,23.10
2019-06-26T01:53:11.902Z,23.00
2019-06-26T01:55:40.919Z,22.90
2019-06-26T01:58:09.980Z,23.00
2019-06-26T02:00:39.359Z,22.90
2019-06-26T02:03:08.778Z,22.90
2019-06-26T02:05:37.810Z,22.90
2019-06-26T02:08:06.814Z,22.90
2019-06-26T02:10:35.785Z,22.90
2019-06-26T02:13:04.766Z,22.80
2019-06-26T02:15:33.752Z,22.70
2019-06-26T02:18:02.874Z,22.70
2019-06-26T02:20:31.938Z,22.60
2019-06-26T02:23:00.919Z,22.70
2019-06-26T02:25:29.903Z,22.60
2019-06-26T02:27:58.894Z,22.60
2019-06-26T02:30:27.853Z,22.60
2019-06-26T02:32:56.858Z,22.60
2019-06-26T02:35:25.819Z,22.60
2019-06-26T02:37:54.799Z,22.60
2019-06-26T02:40:24.001Z,22.60
2019-06-26T02:42:53.056Z,22.40
2019-06-26T02:45:22.147Z,22.40
2019-06-26T02:47:51.494Z,22.40
2019-06-26T02:50:20.459Z,22.40
2019-06-26T02:52:49.436Z,22.50
2019-06-26T02:55:18.489Z,22.50
2019-06-26T02:57:47.543Z,22.40
2019-06-26T03:00:16.830Z,22.30
2019-06-26T03:02:46.177Z,22.30
2019-06-26T03:05:17.414Z,22.40
2019-06-26T03:07:46.520Z,22.50
2019-06-26T03:10:16.110Z,22.50
2019-06-26T03:12:45.157Z,22.40
2019-06-26T03:15:14.576Z,22.30
2019-06-26T03:17:54.837Z,22.40
2019-06-26T03:20:14.681Z,22.30
2019-06-26T03:22:43.771Z,22.20
2019-06-26T03:25:12.944Z,22.10
2019-06-26T03:27:41.938Z,21.90
2019-06-26T03:30:11.230Z,21.90
2019-06-26T03:32:40.198Z,22.00
2019-06-26T03:35:09.556Z,22.00
2019-06-26T03:37:38.695Z,22.00
2019-06-26T03:40:08.877Z,22.10
2019-06-26T03:42:37.864Z,22.20
2019-06-26T03:45:15.645Z,22.20
2019-06-26T03:47:38.352Z,22.30
2019-06-26T03:50:08.763Z,22.40
2019-06-26T03:52:37.799Z,22.50
2019-06-26T03:55:07.266Z,22.50
2019-06-26T03:57:36.311Z,22.40
2019-06-26T04:00:07.396Z,22.30
2019-06-26T04:02:36.409Z,22.30
2019-06-26T04:05:07.207Z,22.30
2019-06-26T04:07:36.321Z,22.30
2019-06-26T04:10:08.555Z,22.20
2019-06-26T04:12:37.635Z,22.10
2019-06-26T04:15:09.915Z,22.20
2019-06-26T04:17:38.973Z,22.30
2019-06-26T04:20:08.202Z,22.20
2019-06-26T04:22:37.235Z,22.20
2019-06-26T04:25:07.751Z,22.30
2019-06-26T04:27:36.781Z,22.20
2019-06-26T04:30:07.377Z,22.10
2019-06-26T04:32:36.467Z,22.10
2019-06-26T04:35:07.366Z,22.20
2019-06-26T04:37:36.443Z,22.20
2019-06-26T04:40:07.267Z,22.20
2019-06-26T04:42:36.299Z,22.30
2019-06-26T04:45:07.997Z,22.30
2019-06-26T04:47:37.338Z,22.20
2019-06-26T04:50:07.704Z,22.10
2019-06-26T04:52:36.966Z,22.00
2019-06-26T04:55:07.206Z,21.90
2019-06-26T04:57:36.390Z,21.90
2019-06-26T05:00:08.082Z,21.90
2019-06-26T05:02:37.155Z,21.90
2019-06-26T05:05:07.119Z,21.70
2019-06-26T05:07:36.082Z,21.70
2019-06-26T05:10:09.519Z,21.60
2019-06-26T05:12:38.497Z,21.50
2019-06-26T05:15:08.842Z,21.40
2019-06-26T05:17:37.964Z,21.40
2019-06-26T05:20:08.044Z,21.50
2019-06-26T05:22:37.233Z,21.60
2019-06-26T05:25:08.042Z,21.70
2019-06-26T05:27:37.207Z,22.00
2019-06-26T05:30:07.748Z,21.90
2019-06-26T05:32:36.873Z,21.90
2019-06-26T05:35:09.911Z,21.80
2019-06-26T05:37:38.954Z,21.80
2019-06-26T05:40:10.189Z,21.80
2019-06-26T05:42:39.495Z,22.00
2019-06-26T05:45:10.233Z,22.00
2019-06-26T05:47:39.738Z,22.00
2019-06-26T05:50:10.982Z,22.10
2019-06-26T05:52:42.813Z,22.20
2019-06-26T05:55:12.118Z,22.20
2019-06-26T05:57:42.135Z,22.40
2019-06-26T06:00:12.509Z,22.20
2019-06-26T06:02:41.612Z,22.10
2019-06-26T06:05:12.122Z,22.50
2019-06-26T06:07:41.425Z,22.40
2019-06-26T06:10:12.221Z,22.40
2019-06-26T06:12:41.326Z,22.30
2019-06-26T06:15:13.531Z,22.40
2019-06-26T06:17:42.933Z,22.40
2019-06-26T06:20:12.520Z,22.50
2019-06-26T06:22:41.550Z,22.40
2019-06-26T06:25:10.935Z,22.50
2019-06-26T06:27:39.982Z,22.50
2019-06-26T06:30:09.943Z,22.50
2019-06-26T06:32:38.913Z,22.70
2019-06-26T06:35:08.088Z,22.60
2019-06-26T06:37:38.690Z,22.50
2019-06-26T06:40:08.775Z,22.40
2019-06-26T06:42:37.767Z,22.40
2019-06-26T06:45:07.373Z,22.50
2019-06-26T06:47:36.473Z,22.40
2019-06-26T06:50:09.295Z,22.40
2019-06-26T06:52:38.265Z,22.30
2019-06-26T06:55:07.326Z,22.40
2019-06-26T06:57:36.374Z,22.40
2019-06-26T07:00:07.830Z,22.30
2019-06-26T07:02:36.774Z,22.40
2019-06-26T07:05:06.811Z,22.40
2019-06-26T07:07:35.861Z,22.50
2019-06-26T07:10:06.339Z,22.40
2019-06-26T07:12:35.819Z,22.30
2019-06-26T07:15:07.325Z,22.40
2019-06-26T07:17:36.357Z,22.60
2019-06-26T07:20:06.372Z,22.60
2019-06-26T07:22:35.474Z,22.70
2019-06-26T07:25:06.019Z,22.80
2019-06-26T07:27:35.117Z,22.60
2019-06-26T07:30:05.844Z,22.70
2019-06-26T07:32:34.907Z,22.80
2019-06-26T07:35:05.717Z,22.90
2019-06-26T07:37:34.722Z,22.90
2019-06-26T07:40:05.241Z,23.00
2019-06-26T07:42:34.232Z,23.00
2019-06-26T07:45:03.478Z,23.00
2019-06-26T07:47:42.409Z,23.00
2019-06-26T07:50:04.304Z,23.00
2019-06-26T07:52:33.264Z,22.80
2019-06-26T07:55:02.505Z,22.70
2019-06-26T07:57:31.845Z,22.80
2019-06-26T08:00:00.918Z,23.10
2019-06-26T08:02:30.154Z,23.30
2019-06-26T08:04:59.191Z,23.30
2019-06-26T08:07:28.185Z,23.30
2019-06-26T08:09:57.226Z,23.30
2019-06-26T08:12:26.280Z,23.20
2019-06-26T08:14:55.358Z,23.10
2019-06-26T08:17:24.397Z,23.30
2019-06-26T08:19:53.394Z,23.50
2019-06-26T08:22:22.390Z,23.70
2019-06-26T08:24:51.352Z,23.90
2019-06-26T08:27:23.308Z,23.80
2019-06-26T08:29:52.348Z,23.90
2019-06-26T08:32:21.334Z,23.70
2019-06-26T08:34:50.461Z,23.70
2019-06-26T08:37:19.493Z,23.70
2019-06-26T08:39:48.575Z,23.70
2019-06-26T08:42:17.599Z,23.70
2019-06-26T08:44:46.817Z,23.90
2019-06-26T08:47:15.854Z,23.90
2019-06-26T08:49:44.808Z,23.90
2019-06-26T08:52:13.975Z,23.90
2019-06-26T08:54:43.009Z,24.10
2019-06-26T08:57:12.039Z,24.20
2019-06-26T08:59:41.084Z,24.30
2019-06-26T09:02:10.214Z,24.40
2019-06-26T09:04:39.687Z,24.60
2019-06-26T09:07:09.079Z,24.50
2019-06-26T09:09:38.109Z,24.70
2019-06-26T09:12:07.101Z,24.70
2019-06-26T09:14:36.374Z,24.70
2019-06-26T09:17:05.397Z,25.00
2019-06-26T09:19:34.434Z,25.00
2019-06-26T09:22:03.493Z,24.80
2019-06-26T09:24:32.558Z,24.70
2019-06-26T09:27:01.590Z,24.80
2019-06-26T09:29:30.564Z,25.00
2019-06-26T09:31:59.554Z,25.10
2019-06-26T09:34:28.535Z,25.10
2019-06-26T09:36:57.605Z,25.30
2019-06-26T09:39:26.644Z,25.30
2019-06-26T09:41:55.658Z,25.30
2019-06-26T09:44:24.706Z,25.30
2019-06-26T09:46:53.686Z,25.40
2019-06-26T09:49:22.761Z,25.30
2019-06-26T09:51:52.011Z,25.40
2019-06-26T09:54:20.979Z,25.50
2019-06-26T09:56:50.119Z,25.40
2019-06-26T09:59:19.168Z,25.70
2019-06-26T10:01:48.239Z,25.80
2019-06-26T10:04:17.202Z,25.90
2019-06-26T10:06:46.180Z,25.90
2019-06-26T10:09:15.221Z,26.00
2019-06-26T10:11:44.179Z,25.90
2019-06-26T10:14:13.494Z,26.20
2019-06-26T10:16:42.531Z,26.30
2019-06-26T10:19:11.625Z,26.60
2019-06-26T10:21:40.615Z,26.70
2019-06-26T10:24:09.575Z,26.80
2019-06-26T10:26:38.592Z,27.10
2019-06-26T10:29:07.655Z,27.40
2019-06-26T10:31:36.685Z,27.60
2019-06-26T10:34:09.726Z,27.80
2019-06-26T10:36:36.327Z,28.10
2019-06-26T10:39:07.920Z,28.30
2019-06-26T10:41:36.949Z,28.50
2019-06-26T10:44:06.051Z,28.60
2019-06-26T10:46:35.107Z,28.70
2019-06-26T10:49:04.202Z,29.10
2019-06-26T10:51:33.276Z,29.00
2019-06-26T10:54:02.239Z,29.00
2019-06-26T10:56:31.285Z,29.30
2019-06-26T10:59:00.348Z,29.70
2019-06-26T11:01:29.699Z,29.80
2019-06-26T11:03:58.698Z,29.90
2019-06-26T11:06:27.734Z,30.00
2019-06-26T11:08:56.691Z,30.30
2019-06-26T11:11:25.686Z,30.30
2019-06-26T11:13:54.726Z,30.50
2019-06-26T11:16:23.717Z,30.60
2019-06-26T11:18:52.680Z,30.80
2019-06-26T11:21:21.649Z,30.90
2019-06-26T11:23:50.658Z,30.90
2019-06-26T11:26:19.684Z,30.80
2019-06-26T11:28:48.760Z,31.10
2019-06-26T11:31:17.725Z,31.10
2019-06-26T11:33:46.679Z,31.20
2019-06-26T11:36:15.743Z,31.40
2019-06-26T11:38:44.748Z,31.50
2019-06-26T11:41:13.753Z,31.50
2019-06-26T11:43:42.724Z,31.30
2019-06-26T11:46:12.081Z,31.30
2019-06-26T11:48:41.208Z,31.10
2019-06-26T11:51:10.246Z,31.10
2019-06-26T11:53:39.469Z,31.30
2019-06-26T11:56:09.491Z,31.20
2019-06-26T11:58:38.854Z,31.20
2019-06-26T12:01:07.948Z,31.20
2019-06-26T12:03:37.021Z,31.10
2019-06-26T12:06:17.963Z,31.00
2019-06-26T12:08:36.744Z,31.20
2019-06-26T12:11:05.805Z,31.20
2019-06-26T12:13:34.846Z,31.30
2019-06-26T12:16:03.804Z,31.20
2019-06-26T12:18:33.239Z,31.00
2019-06-26T12:21:02.200Z,31.10
2019-06-26T12:23:31.233Z,31.00
2019-06-26T12:26:00.303Z,30.90
2019-06-26T12:28:29.343Z,31.00
2019-06-26T12:30:58.306Z,31.00
2019-06-26T12:33:27.306Z,31.10
2019-06-26T12:35:56.264Z,31.10
2019-06-26T12:38:25.371Z,31.00
2019-06-26T12:40:54.881Z,30.90
2019-06-26T12:43:24.004Z,30.90
2019-06-26T12:45:53.034Z,30.70
2019-06-26T12:48:22.010Z,30.70
2019-06-26T12:50:51.165Z,30.60
2019-06-26T12:53:20.125Z,30.60
2019-06-26T12:55:49.103Z,30.60
2019-06-26T12:58:20.002Z,30.50
2019-06-26T13:00:48.759Z,30.50
2019-06-26T13:03:17.754Z,30.70
2019-06-26T13:05:46.770Z,30.90
2019-06-26T13:08:15.759Z,31.20
2019-06-26T13:10:49.762Z,31.30
2019-06-26T13:13:15.470Z,31.40
2019-06-26T13:15:44.490Z,31.50
2019-06-26T13:18:13.524Z,31.70
2019-06-26T13:20:52.702Z,31.80
2019-06-26T13:23:14.917Z,31.70
2019-06-26T13:25:44.125Z,31.80
2019-06-26T13:28:13.123Z,31.80
2019-06-26T13:30:42.165Z,32.00
2019-06-26T13:33:11.202Z,32.10
2019-06-26T13:35:40.278Z,32.00
2019-06-26T13:38:09.685Z,32.20
2019-06-26T13:40:41.048Z,32.30
2019-06-26T13:43:10.055Z,32.10
2019-06-26T13:45:39.305Z,32.00
2019-06-26T13:48:08.485Z,31.80
2019-06-26T13:50:37.510Z,31.80
2019-06-26T13:53:06.743Z,31.70
2019-06-26T13:55:35.837Z,31.80
2019-06-26T13:58:04.872Z,31.70
2019-06-26T14:00:33.843Z,31.70
2019-06-26T14:03:02.820Z,31.80
2019-06-26T14:05:31.805Z,31.70
2019-06-26T14:08:00.767Z,31.80
2019-06-26T14:10:30.126Z,31.80
2019-06-26T14:12:59.195Z,31.70
2019-06-26T14:15:28.226Z,31.60
2019-06-26T14:17:57.257Z,31.60
2019-06-26T14:20:26.565Z,31.50
2019-06-26T14:22:55.527Z,31.50
2019-06-26T14:25:24.873Z,31.40
2019-06-26T14:27:53.834Z,31.50
2019-06-26T14:30:23.490Z,31.50
2019-06-26T14:32:52.453Z,31.50
2019-06-26T14:35:21.425Z,31.40
2019-06-26T14:37:50.409Z,31.40
2019-06-26T14:40:19.735Z,31.30
2019-06-26T14:42:48.754Z,31.30
2019-06-26T14:45:17.914Z,31.20
2019-06-26T14:47:46.922Z,31.20
2019-06-26T14:50:16.294Z,31.20
2019-06-26T14:52:46.095Z,31.10
2019-06-26T14:55:15.973Z,31.20
2019-06-26T14:57:45.291Z,31.20
2019-06-26T15:00:15.949Z,31.20
2019-06-26T15:02:44.928Z,31.00
2019-06-26T15:05:14.726Z,31.10
2019-06-26T15:07:43.710Z,31.10
2019-06-26T15:10:12.806Z,31.10
2019-06-26T15:12:41.853Z,31.10
2019-06-26T15:15:12.983Z,31.20
2019-06-26T15:17:41.955Z,31.20
2019-06-26T15:20:11.309Z,31.20
2019-06-26T15:22:40.455Z,31.20
2019-06-26T15:25:09.895Z,31.20
2019-06-26T15:27:39.172Z,31.10
2019-06-26T15:30:09.782Z,31.10
2019-06-26T15:32:38.971Z,31.10
2019-06-26T15:35:08.242Z,31.20
2019-06-26T15:37:37.345Z,31.00
2019-06-26T15:40:07.230Z,30.90
2019-06-26T15:42:36.413Z,30.90
2019-06-26T15:45:08.202Z,30.90
2019-06-26T15:47:37.626Z,30.80
2019-06-26T15:50:10.505Z,30.80
2019-06-26T15:52:38.160Z,30.80
2019-06-26T15:55:07.680Z,30.70
2019-06-26T15:57:36.994Z,30.70
2019-06-26T16:00:10.940Z,30.60
2019-06-26T16:02:40.107Z,30.60
2019-06-26T16:05:09.266Z,30.70
2019-06-26T16:07:38.328Z,30.70
2019-06-26T16:10:08.704Z,30.40
2019-06-26T16:12:37.709Z,30.30
2019-06-26T16:15:07.782Z,30.20
2019-06-26T16:17:44.247Z,30.20
2019-06-26T16:20:13.734Z,30.10
2019-06-26T16:22:42.821Z,30.00
2019-06-26T16:25:12.233Z,30.00
2019-06-26T16:27:41.266Z,30.00
2019-06-26T16:30:10.797Z,30.00
2019-06-26T16:32:39.774Z,29.80
2019-06-26T16:35:12.213Z,29.80
2019-06-26T16:37:40.010Z,29.80
2019-06-26T16:40:09.255Z,29.70
2019-06-26T16:42:38.266Z,29.60
2019-06-26T16:45:07.844Z,29.50
2019-06-26T16:47:36.927Z,29.40
2019-06-26T16:50:07.636Z,29.20
2019-06-26T16:52:48.687Z,29.20
2019-06-26T16:55:07.865Z,29.20
2019-06-26T16:57:36.829Z,29.20
2019-06-26T17:00:09.928Z,29.10
2019-06-26T17:02:38.221Z,28.90
2019-06-26T17:05:07.354Z,28.80
2019-06-26T17:07:36.410Z,28.60
2019-06-26T17:10:09.496Z,28.50
2019-06-26T17:12:38.473Z,28.40
2019-06-26T17:15:12.368Z,28.40
2019-06-26T17:17:41.340Z,28.30
2019-06-26T17:20:11.282Z,28.20
2019-06-26T17:22:41.836Z,28.10
2019-06-26T17:25:11.291Z,28.10
2019-06-26T17:27:40.696Z,28.10
2019-06-26T17:30:10.069Z,28.20
2019-06-26T17:32:39.128Z,28.20
2019-06-26T17:35:08.949Z,28.20
2019-06-26T17:37:37.956Z,28.10
2019-06-26T17:40:08.427Z,28.00
2019-06-26T17:42:39.020Z,28.00
2019-06-26T17:45:08.279Z,27.90
2019-06-26T17:47:38.288Z,27.80
2019-06-26T17:50:08.294Z,27.80
2019-06-26T17:52:38.570Z,27.70
2019-06-26T17:55:09.228Z,27.60
2019-06-26T17:57:38.293Z,27.50
2019-06-26T18:00:09.037Z,27.50
2019-06-26T18:02:38.679Z,27.40
2019-06-26T18:05:08.510Z,27.40
2019-06-26T18:07:37.472Z,27.40
2019-06-26T18:10:06.989Z,27.50
2019-06-26T18:12:36.327Z,27.50
2019-06-26T18:15:07.362Z,27.50
2019-06-26T18:17:36.555Z,27.50
2019-06-26T18:20:07.122Z,27.50
2019-06-26T18:22:36.537Z,27.40
2019-06-26T18:25:08.524Z,27.30
2019-06-26T18:27:37.594Z,27.30
2019-06-26T18:30:08.058Z,27.40
2019-06-26T18:32:37.024Z,27.40
2019-06-26T18:35:08.904Z,27.40
2019-06-26T18:37:37.991Z,27.30
2019-06-26T18:40:07.465Z,27.40
2019-06-26T18:42:37.078Z,27.10
2019-06-26T18:45:07.563Z,27.00
2019-06-26T18:47:36.601Z,26.90
2019-06-26T18:50:08.034Z,26.80
2019-06-26T18:52:37.032Z,26.80
2019-06-26T18:55:07.858Z,26.70
2019-06-26T18:57:36.820Z,26.70
2019-06-26T19:00:08.692Z,26.70
2019-06-26T19:02:37.806Z,26.70
2019-06-26T19:05:11.309Z,26.60
2019-06-26T19:07:40.270Z,26.60
2019-06-26T19:10:09.693Z,26.50
2019-06-26T19:12:38.813Z,26.50
2019-06-26T19:15:08.580Z,26.50
2019-06-26T19:17:37.711Z,26.40
2019-06-26T19:20:07.873Z,26.30
2019-06-26T19:22:37.230Z,26.30
2019-06-26T19:25:08.359Z,26.30
2019-06-26T19:27:37.484Z,26.30
2019-06-26T19:30:08.767Z,26.30
2019-06-26T19:32:37.841Z,26.30
2019-06-26T19:35:18.399Z,26.10
2019-06-26T19:37:39.368Z,26.20
2019-06-26T19:40:09.193Z,26.10
2019-06-26T19:42:38.627Z,26.00
2019-06-26T19:45:10.155Z,26.00
2019-06-26T19:47:39.188Z,26.00
2019-06-26T19:50:09.101Z,25.90
2019-06-26T19:52:38.189Z,25.80
2019-06-26T19:55:07.684Z,25.80
2019-06-26T19:57:37.104Z,25.80
2019-06-26T20:00:09.115Z,25.70
2019-06-26T20:02:38.167Z,25.70
2019-06-26T20:05:08.168Z,25.70
2019-06-26T20:07:39.022Z,25.60
2019-06-26T20:10:09.241Z,25.60
2019-06-26T20:12:38.209Z,25.50
2019-06-26T20:15:08.835Z,25.40
2019-06-26T20:17:37.857Z,25.40
2019-06-26T20:20:07.286Z,25.30
2019-06-26T20:22:36.395Z,25.40
2019-06-26T20:25:10.359Z,25.30
2019-06-26T20:27:39.407Z,25.20
2019-06-26T20:30:11.759Z,25.10
2019-06-26T20:32:40.803Z,25.20
2019-06-26T20:35:10.104Z,25.20
2019-06-26T20:37:39.156Z,25.30
2019-06-26T20:40:08.855Z,25.20
2019-06-26T20:42:37.935Z,25.10
2019-06-26T20:45:08.113Z,24.90
2019-06-26T20:47:37.442Z,25.00
2019-06-26T20:50:07.668Z,24.90
2019-06-26T20:52:37.110Z,24.70
2019-06-26T20:55:07.222Z,24.70
2019-06-26T20:57:36.319Z,24.70
2019-06-26T21:00:09.553Z,24.50
2019-06-26T21:02:38.515Z,24.50
2019-06-26T21:05:08.020Z,24.50
2019-06-26T21:07:37.074Z,24.30
2019-06-26T21:10:06.484Z,24.30
2019-06-26T21:12:35.528Z,24.20
2019-06-26T21:15:06.922Z,24.20
2019-06-26T21:17:36.228Z,24.20
2019-06-26T21:20:06.538Z,24.10
2019-06-26T21:22:35.863Z,24.00
2019-06-26T21:25:17.596Z,23.90
2019-06-26T21:27:37.776Z,23.90
2019-06-26T21:30:07.888Z,24.00
2019-06-26T21:32:36.852Z,23.90
2019-06-26T21:35:06.841Z,23.80
2019-06-26T21:37:35.910Z,23.80
2019-06-26T21:40:05.302Z,23.80
2019-06-26T21:42:34.302Z,23.80
2019-06-26T21:45:04.064Z,23.70
2019-06-26T21:47:33.113Z,23.60
2019-06-26T21:50:02.073Z,23.50
2019-06-26T21:52:31.561Z,23.50
2019-06-26T21:55:00.925Z,23.40
2019-06-26T21:57:30.155Z,23.40
2019-06-26T21:59:59.138Z,23.40
2019-06-26T22:02:28.647Z,23.30
2019-06-26T22:04:57.753Z,23.10
2019-06-26T22:07:26.855Z,23.00
2019-06-26T22:09:55.872Z,23.00
2019-06-26T22:12:25.221Z,22.90
2019-06-26T22:14:54.328Z,22.90
2019-06-26T22:17:23.377Z,22.90
2019-06-26T22:19:52.696Z,22.90
2019-06-26T22:22:22.123Z,22.80
2019-06-26T22:24:54.255Z,22.80
2019-06-26T22:27:23.306Z,22.70
2019-06-26T22:29:52.487Z,22.70
2019-06-26T22:32:21.787Z,22.70
2019-06-26T22:34:50.874Z,22.80
2019-06-26T22:37:19.843Z,22.80
2019-06-26T22:39:49.181Z,22.80
2019-06-26T22:42:18.502Z,22.90
2019-06-26T22:44:47.477Z,22.70
2019-06-26T22:47:19.433Z,22.70
2019-06-26T22:49:48.423Z,22.60
2019-06-26T22:52:17.406Z,22.60
2019-06-26T22:54:46.434Z,22.60
2019-06-26T22:57:15.397Z,22.60
2019-06-26T22:59:44.382Z,22.60
2019-06-26T23:02:13.350Z,22.40
2019-06-26T23:04:42.402Z,22.30
2019-06-26T23:07:11.368Z,22.10
2019-06-26T23:09:40.809Z,22.30
2019-06-26T23:12:09.771Z,22.30
2019-06-26T23:14:38.731Z,22.20
2019-06-26T23:17:08.082Z,22.20
2019-06-26T23:19:37.113Z,22.20
2019-06-26T23:22:06.232Z,22.00
2019-06-26T23:24:35.262Z,22.00
2019-06-26T23:27:04.349Z,21.90
2019-06-26T23:29:33.368Z,21.80
2019-06-26T23:32:03.412Z,21.90
2019-06-26T23:34:32.852Z,21.80
2019-06-26T23:37:01.872Z,21.60
2019-06-26T23:39:30.838Z,21.60
2019-06-26T23:41:59.815Z,21.50
2019-06-26T23:44:28.791Z,21.50
2019-06-26T23:46:57.749Z,21.50
2019-06-26T23:49:26.704Z,21.50
2019-06-26T23:51:55.718Z,21.50
2019-06-26T23:54:24.720Z,21.40
2019-06-26T23:56:53.769Z,21.30
2019-06-26T23:59:22.796Z,21.40
